sensor_id;sensor_type;location;lat;lon;timestamp;temperature;humidity
67165;SHT31;54093;50.014;19.984;2022-09-09T00:01:43;18.10;88.48
67165;SHT31;54093;50.014;19.984;2022-09-09T00:11:07;18.08;88.49
67165;SHT31;54093;50.014;19.984;2022-09-09T00:20:44;18.00;88.89
67165;SHT31;54093;50.014;19.984;2022-09-09T00:30:22;18.05;88.32
67165;SHT31;54093;50.014;19.984;2022-09-09T00:39:48;18.00;88.51
67165;SHT31;54093;50.014;19.984;2022-09-09T00:49:29;17.93;88.65
67165;SHT31;54093;50.014;19.984;2022-09-09T00:59:10;17.89;88.80
67165;SHT31;54093;50.014;19.984;2022-09-09T01:18:13;17.85;88.16
67165;SHT31;54093;50.014;19.984;2022-09-09T01:27:36;17.83;88.10
67165;SHT31;54093;50.014;19.984;2022-09-09T01:37:04;17.71;87.81
67165;SHT31;54093;50.014;19.984;2022-09-09T01:46:27;17.74;87.85
67165;SHT31;54093;50.014;19.984;2022-09-09T01:55:55;17.65;88.01
67165;SHT31;54093;50.014;19.984;2022-09-09T02:14:55;17.38;88.00
67165;SHT31;54093;50.014;19.984;2022-09-09T02:24:16;17.27;88.19
67165;SHT31;54093;50.014;19.984;2022-09-09T02:33:41;17.30;87.77
67165;SHT31;54093;50.014;19.984;2022-09-09T02:43:02;17.28;87.87
67165;SHT31;54093;50.014;19.984;2022-09-09T02:52:32;17.26;87.94
67165;SHT31;54093;50.014;19.984;2022-09-09T03:01:55;17.21;88.02
67165;SHT31;54093;50.014;19.984;2022-09-09T03:11:16;17.10;88.06
67165;SHT31;54093;50.014;19.984;2022-09-09T03:20:37;17.04;87.82
67165;SHT31;54093;50.014;19.984;2022-09-09T03:29:58;17.04;87.82
67165;SHT31;54093;50.014;19.984;2022-09-09T03:39:19;17.00;87.82
67165;SHT31;54093;50.014;19.984;2022-09-09T03:48:40;16.94;87.73
67165;SHT31;54093;50.014;19.984;2022-09-09T03:58:01;16.93;87.54
67165;SHT31;54093;50.014;19.984;2022-09-09T04:07:21;16.93;87.37
67165;SHT31;54093;50.014;19.984;2022-09-09T04:16:42;16.89;86.86
67165;SHT31;54093;50.014;19.984;2022-09-09T04:26:05;16.76;87.70
67165;SHT31;54093;50.014;19.984;2022-09-09T04:35:26;16.62;87.83
67165;SHT31;54093;50.014;19.984;2022-09-09T04:44:47;16.62;88.09
67165;SHT31;54093;50.014;19.984;2022-09-09T04:54:08;16.59;88.29
67165;SHT31;54093;50.014;19.984;2022-09-09T05:03:29;16.63;88.66
67165;SHT31;54093;50.014;19.984;2022-09-09T05:12:53;16.69;88.73
67165;SHT31;54093;50.014;19.984;2022-09-09T05:22:23;16.71;88.60
67165;SHT31;54093;50.014;19.984;2022-09-09T05:31:45;16.59;88.55
67165;SHT31;54093;50.014;19.984;2022-09-09T05:41:06;16.58;88.84
67165;SHT31;54093;50.014;19.984;2022-09-09T05:50:27;16.72;89.37
67165;SHT31;54093;50.014;19.984;2022-09-09T05:59:48;17.09;89.20
67165;SHT31;54093;50.014;19.984;2022-09-09T06:09:09;17.55;87.56
67165;SHT31;54093;50.014;19.984;2022-09-09T06:18:30;17.81;85.07
67165;SHT31;54093;50.014;19.984;2022-09-09T06:27:51;17.92;84.25
67165;SHT31;54093;50.014;19.984;2022-09-09T06:37:11;18.33;82.51
67165;SHT31;54093;50.014;19.984;2022-09-09T06:46:32;18.91;82.15
67165;SHT31;54093;50.014;19.984;2022-09-09T06:55:53;19.35;78.41
67165;SHT31;54093;50.014;19.984;2022-09-09T07:05:15;19.56;79.96
67165;SHT31;54093;50.014;19.984;2022-09-09T07:14:36;20.17;77.15
67165;SHT31;54093;50.014;19.984;2022-09-09T07:23:58;20.66;77.33
67165;SHT31;54093;50.014;19.984;2022-09-09T07:33:19;21.06;76.39
67165;SHT31;54093;50.014;19.984;2022-09-09T07:42:40;21.57;74.79
67165;SHT31;54093;50.014;19.984;2022-09-09T07:52:01;21.93;69.27
67165;SHT31;54093;50.014;19.984;2022-09-09T08:01:31;21.61;71.29
67165;SHT31;54093;50.014;19.984;2022-09-09T08:10:52;21.99;66.08
67165;SHT31;54093;50.014;19.984;2022-09-09T08:20:13;22.45;69.07
67165;SHT31;54093;50.014;19.984;2022-09-09T08:29:34;22.23;64.51
67165;SHT31;54093;50.014;19.984;2022-09-09T08:38:56;22.34;65.01
67165;SHT31;54093;50.014;19.984;2022-09-09T08:48:58;22.10;65.33
67165;SHT31;54093;50.014;19.984;2022-09-09T08:58:29;22.32;64.42
67165;SHT31;54093;50.014;19.984;2022-09-09T09:17:35;23.13;63.05
67165;SHT31;54093;50.014;19.984;2022-09-09T09:27:00;23.81;60.73
67165;SHT31;54093;50.014;19.984;2022-09-09T09:36:44;24.86;57.17
67165;SHT31;54093;50.014;19.984;2022-09-09T09:46:20;24.04;54.23
67165;SHT31;54093;50.014;19.984;2022-09-09T09:55:50;24.36;53.13
67165;SHT31;54093;50.014;19.984;2022-09-09T10:05:15;24.57;55.49
67165;SHT31;54093;50.014;19.984;2022-09-09T10:15:02;25.20;57.60
67165;SHT31;54093;50.014;19.984;2022-09-09T10:24:34;25.41;54.10
67165;SHT31;54093;50.014;19.984;2022-09-09T10:34:26;25.39;50.38
67165;SHT31;54093;50.014;19.984;2022-09-09T11:03:29;26.58;48.40
67165;SHT31;54093;50.014;19.984;2022-09-09T11:12:51;25.59;48.74
67165;SHT31;54093;50.014;19.984;2022-09-09T11:22:34;25.37;47.91
67165;SHT31;54093;50.014;19.984;2022-09-09T11:32:08;25.45;48.76
67165;SHT31;54093;50.014;19.984;2022-09-09T11:41:36;25.75;48.31
67165;SHT31;54093;50.014;19.984;2022-09-09T11:51:09;25.73;44.68
67165;SHT31;54093;50.014;19.984;2022-09-09T12:00:48;26.04;42.01
67165;SHT31;54093;50.014;19.984;2022-09-09T12:10:32;25.66;46.40
67165;SHT31;54093;50.014;19.984;2022-09-09T12:39:33;25.37;48.13
67165;SHT31;54093;50.014;19.984;2022-09-09T12:48:56;25.27;48.75
67165;SHT31;54093;50.014;19.984;2022-09-09T12:58:27;25.28;45.18
67165;SHT31;54093;50.014;19.984;2022-09-09T13:08:10;25.58;46.92
67165;SHT31;54093;50.014;19.984;2022-09-09T13:17:31;25.94;46.58
67165;SHT31;54093;50.014;19.984;2022-09-09T13:26:59;26.10;47.65
67165;SHT31;54093;50.014;19.984;2022-09-09T13:36:30;26.38;44.23
67165;SHT31;54093;50.014;19.984;2022-09-09T13:45:55;26.43;41.24
67165;SHT31;54093;50.014;19.984;2022-09-09T13:55:17;26.51;45.30
67165;SHT31;54093;50.014;19.984;2022-09-09T14:04:38;26.29;41.52
67165;SHT31;54093;50.014;19.984;2022-09-09T14:14:01;25.79;46.93
67165;SHT31;54093;50.014;19.984;2022-09-09T14:23:22;25.25;46.88
67165;SHT31;54093;50.014;19.984;2022-09-09T14:32:44;25.00;45.49
67165;SHT31;54093;50.014;19.984;2022-09-09T14:42:05;25.25;48.37
67165;SHT31;54093;50.014;19.984;2022-09-09T14:51:26;25.21;48.11
67165;SHT31;54093;50.014;19.984;2022-09-09T15:00:49;25.14;48.47
67165;SHT31;54093;50.014;19.984;2022-09-09T15:10:10;24.72;46.24
67165;SHT31;54093;50.014;19.984;2022-09-09T15:19:31;24.77;49.52
67165;SHT31;54093;50.014;19.984;2022-09-09T15:28:52;24.73;49.07
67165;SHT31;54093;50.014;19.984;2022-09-09T15:38:14;24.59;49.83
67165;SHT31;54093;50.014;19.984;2022-09-09T15:47:37;24.43;49.86
67165;SHT31;54093;50.014;19.984;2022-09-09T15:57:00;24.19;51.17
67165;SHT31;54093;50.014;19.984;2022-09-09T16:06:22;23.94;52.63
67165;SHT31;54093;50.014;19.984;2022-09-09T16:15:43;23.77;52.72
67165;SHT31;54093;50.014;19.984;2022-09-09T16:25:04;23.56;54.42
67165;SHT31;54093;50.014;19.984;2022-09-09T16:34:26;23.18;58.46
67165;SHT31;54093;50.014;19.984;2022-09-09T16:43:47;22.67;61.09
67165;SHT31;54093;50.014;19.984;2022-09-09T16:53:08;22.20;62.88
67165;SHT31;54093;50.014;19.984;2022-09-09T17:02:30;21.79;64.33
67165;SHT31;54093;50.014;19.984;2022-09-09T17:11:51;21.47;65.84
67165;SHT31;54093;50.014;19.984;2022-09-09T17:21:15;21.11;66.52
67165;SHT31;54093;50.014;19.984;2022-09-09T17:30:36;20.86;67.49
67165;SHT31;54093;50.014;19.984;2022-09-09T17:39:57;20.68;68.09
67165;SHT31;54093;50.014;19.984;2022-09-09T17:49:18;20.53;69.08
67165;SHT31;54093;50.014;19.984;2022-09-09T17:58:39;20.41;70.12
67165;SHT31;54093;50.014;19.984;2022-09-09T18:08:00;20.28;70.57
67165;SHT31;54093;50.014;19.984;2022-09-09T18:17:21;20.21;71.10
67165;SHT31;54093;50.014;19.984;2022-09-09T18:26:42;20.07;71.38
67165;SHT31;54093;50.014;19.984;2022-09-09T18:36:06;19.94;72.17
67165;SHT31;54093;50.014;19.984;2022-09-09T18:45:27;19.78;72.33
67165;SHT31;54093;50.014;19.984;2022-09-09T18:54:48;19.63;72.76
67165;SHT31;54093;50.014;19.984;2022-09-09T19:04:10;19.47;73.28
67165;SHT31;54093;50.014;19.984;2022-09-09T19:13:32;19.42;73.65
67165;SHT31;54093;50.014;19.984;2022-09-09T19:22:53;19.35;74.09
67165;SHT31;54093;50.014;19.984;2022-09-09T19:32:13;19.19;74.78
67165;SHT31;54093;50.014;19.984;2022-09-09T19:41:35;19.15;74.85
67165;SHT31;54093;50.014;19.984;2022-09-09T19:51:04;19.05;75.14
67165;SHT31;54093;50.014;19.984;2022-09-09T20:00:24;18.89;75.74
67165;SHT31;54093;50.014;19.984;2022-09-09T20:09:46;18.79;76.04
67165;SHT31;54093;50.014;19.984;2022-09-09T20:19:08;18.74;76.46
67165;SHT31;54093;50.014;19.984;2022-09-09T20:28:31;18.87;75.18
67165;SHT31;54093;50.014;19.984;2022-09-09T20:37:59;18.92;74.99
67165;SHT31;54093;50.014;19.984;2022-09-09T20:47:29;18.91;74.66
67165;SHT31;54093;50.014;19.984;2022-09-09T20:56:51;18.81;75.14
67165;SHT31;54093;50.014;19.984;2022-09-09T21:06:13;18.69;75.49
67165;SHT31;54093;50.014;19.984;2022-09-09T21:15:35;18.72;75.52
67165;SHT31;54093;50.014;19.984;2022-09-09T21:24:55;18.67;75.96
67165;SHT31;54093;50.014;19.984;2022-09-09T21:34:17;18.56;76.66
67165;SHT31;54093;50.014;19.984;2022-09-09T21:43:38;18.57;76.54
67165;SHT31;54093;50.014;19.984;2022-09-09T21:53:01;18.51;77.03
67165;SHT31;54093;50.014;19.984;2022-09-09T22:02:22;18.47;77.41
67165;SHT31;54093;50.014;19.984;2022-09-09T22:11:43;18.43;77.66
67165;SHT31;54093;50.014;19.984;2022-09-09T22:21:06;18.34;78.18
67165;SHT31;54093;50.014;19.984;2022-09-09T22:30:28;18.29;78.55
67165;SHT31;54093;50.014;19.984;2022-09-09T22:39:49;18.25;78.82
67165;SHT31;54093;50.014;19.984;2022-09-09T22:49:10;18.14;79.19
67165;SHT31;54093;50.014;19.984;2022-09-09T22:58:32;18.09;79.37
67165;SHT31;54093;50.014;19.984;2022-09-09T23:07:53;18.03;80.09
67165;SHT31;54093;50.014;19.984;2022-09-09T23:17:17;17.98;79.92
67165;SHT31;54093;50.014;19.984;2022-09-09T23:26:41;17.88;80.61
67165;SHT31;54093;50.014;19.984;2022-09-09T23:36:11;17.92;80.37
67165;SHT31;54093;50.014;19.984;2022-09-09T23:45:32;17.81;80.84
67165;SHT31;54093;50.014;19.984;2022-09-09T23:54:53;17.78;81.21
